Time;durP1;ratioP1;P1;durP2;ratioP2;P2;SDS_P1;SDS_P2;PMS_P1;PMS_P2;Temp;Humidity;BMP_temperature;BMP_pressure;BME280_temperature;BME280_humidity;BME280_pressure;Samples;Min_cycle;Max_cycle;Signal;HPM_P1;HPM_P2
2021/05/05 00:00:18;;;;;;;6.00;1.88;;;8.00;99.90;;;;;;5088786;28;20604;-89
2021/05/05 00:02:44;;;;;;;4.00;1.60;;;8.00;99.90;;;;;;5036114;28;20551;-88
2021/05/05 00:05:11;;;;;;;5.57;1.67;;;8.10;99.90;;;;;;5050682;28;20175;-88
2021/05/05 00:07:36;;;;;;;6.13;2.45;;;8.10;99.90;;;;;;5056825;28;20175;-89
2021/05/05 00:10:04;;;;;;;7.50;1.98;;;8.30;99.90;;;;;;5089388;28;20765;-88
2021/05/05 00:12:29;;;;;;;5.03;1.83;;;8.30;99.90;;;;;;5055642;28;20638;-88
2021/05/05 00:14:55;;;;;;;4.00;1.70;;;8.30;99.90;;;;;;5056340;28;20250;-88
2021/05/05 00:17:21;;;;;;;3.67;1.77;;;8.40;99.90;;;;;;5055687;28;20176;-87
2021/05/05 00:19:46;;;;;;;7.50;1.83;;;8.40;99.90;;;;;;5054309;28;20171;-88
2021/05/05 00:22:12;;;;;;;4.78;1.60;;;8.40;99.90;;;;;;5056385;28;20237;-88
2021/05/05 00:24:38;;;;;;;2.38;1.75;;;8.30;99.90;;;;;;5054832;28;20663;-89
2021/05/05 00:27:05;;;;;;;7.97;1.52;;;8.20;99.90;;;;;;5056425;28;20206;-89
2021/05/05 00:29:30;;;;;;;9.18;1.98;;;8.10;99.90;;;;;;5054843;28;20233;-89
2021/05/05 00:31:56;;;;;;;2.55;1.30;;;8.00;99.90;;;;;;5056507;28;20175;-91
2021/05/05 00:34:21;;;;;;;1.80;1.50;;;7.90;99.90;;;;;;5054876;28;20573;-88
2021/05/05 00:36:47;;;;;;;4.90;1.60;;;8.00;99.90;;;;;;5088681;28;20620;-89
2021/05/05 00:39:13;;;;;;;4.55;1.60;;;8.00;99.90;;;;;;5054825;28;20175;-89
2021/05/05 00:41:39;;;;;;;2.97;1.60;;;7.90;99.90;;;;;;5039340;28;20180;-91
2021/05/05 00:44:04;;;;;;;3.50;1.65;;;8.00;99.90;;;;;;5036322;28;20172;-90
2021/05/05 00:46:30;;;;;;;5.60;1.83;;;8.00;99.90;;;;;;5047681;28;20171;-91
2021/05/05 00:48:56;;;;;;;6.50;2.05;;;8.10;99.90;;;;;;5065240;28;20571;-89
2021/05/05 00:51:22;;;;;;;3.30;1.67;;;8.00;99.90;;;;;;5059066;28;20164;-89
2021/05/05 00:53:48;;;;;;;4.15;1.73;;;8.00;99.90;;;;;;5064504;28;20211;-89
2021/05/05 00:56:13;;;;;;;3.45;1.80;;;7.90;99.90;;;;;;5075203;28;20187;-90
2021/05/05 00:58:39;;;;;;;1.85;1.70;;;7.90;99.90;;;;;;5038703;28;20180;-88
2021/05/05 01:01:05;;;;;;;3.25;1.60;;;7.90;99.90;;;;;;5059473;28;20175;-89
2021/05/05 01:03:32;;;;;;;4.47;2.05;;;7.80;99.90;;;;;;5054855;28;20314;-90
2021/05/05 01:05:59;;;;;;;7.03;2.00;;;7.80;99.90;;;;;;5058757;28;20202;-91
2021/05/05 01:08:24;;;;;;;3.90;1.80;;;7.80;99.90;;;;;;5073343;28;20221;-89
2021/05/05 01:10:50;;;;;;;3.08;2.03;;;7.80;99.90;;;;;;5078593;28;20187;-88
2021/05/05 01:13:17;;;;;;;3.42;1.70;;;7.70;99.90;;;;;;5059427;28;20175;-89
2021/05/05 01:15:43;;;;;;;5.30;2.15;;;7.70;99.90;;;;;;5044377;28;20211;-89
2021/05/05 01:18:10;;;;;;;5.22;1.85;;;7.70;99.90;;;;;;5041146;28;20208;-89
2021/05/05 01:20:36;;;;;;;3.17;1.88;;;7.80;99.90;;;;;;5035144;28;20176;-89
2021/05/05 01:23:02;;;;;;;6.13;2.65;;;7.80;99.90;;;;;;5034961;28;20183;-89
2021/05/05 01:25:27;;;;;;;5.13;2.20;;;7.70;99.90;;;;;;5034230;28;20176;-89
2021/05/05 01:27:53;;;;;;;2.70;1.80;;;7.70;99.90;;;;;;5034645;28;20176;-90
2021/05/05 01:30:21;;;;;;;4.07;2.38;;;7.60;99.90;;;;;;5079396;28;20192;-90
2021/05/05 01:32:47;;;;;;;5.80;1.80;;;7.60;99.90;;;;;;5036312;28;20188;-90
2021/05/05 01:35:15;;;;;;;4.75;2.10;;;7.60;99.90;;;;;;5046323;28;20215;-89
2021/05/05 01:37:42;;;;;;;7.13;2.33;;;7.60;99.90;;;;;;5055802;28;20183;-88
2021/05/05 01:40:11;;;;;;;6.22;2.65;;;7.60;99.90;;;;;;5050711;28;20185;-88
2021/05/05 01:42:37;;;;;;;9.07;2.90;;;7.70;99.90;;;;;;5075818;28;20166;-89
2021/05/05 01:45:04;;;;;;;6.00;2.30;;;7.90;99.90;;;;;;5063846;28;20644;-88
2021/05/05 01:47:29;;;;;;;3.28;2.55;;;8.00;99.90;;;;;;5054031;28;20222;-89
2021/05/05 01:49:55;;;;;;;9.02;2.17;;;8.00;99.90;;;;;;5033463;28;20180;-88
2021/05/05 01:52:21;;;;;;;15.30;2.20;;;8.20;99.90;;;;;;5033969;28;20171;-89
2021/05/05 01:54:46;;;;;;;6.63;2.63;;;8.30;99.90;;;;;;5059186;28;20215;-88
2021/05/05 01:57:38;;;;;;;6.40;2.20;;;8.20;99.90;;;;;;5033837;28;20187;-88
2021/05/05 02:00:11;;;;;;;4.88;2.10;;;8.10;99.90;;;;;;5048805;28;20176;-89
2021/05/05 02:02:36;;;;;;;25.33;2.60;;;7.90;99.90;;;;;;5053410;28;20183;-89
2021/05/05 02:05:04;;;;;;;4.55;2.78;;;7.90;99.90;;;;;;5053711;28;20604;-89
2021/05/05 02:07:29;;;;;;;8.63;2.75;;;8.00;99.90;;;;;;5054248;28;20643;-90
2021/05/05 02:09:55;;;;;;;8.80;2.80;;;8.20;99.90;;;;;;5053138;28;20175;-89
2021/05/05 02:12:21;;;;;;;7.80;2.92;;;8.20;99.90;;;;;;5043005;28;20184;-88
2021/05/05 02:14:47;;;;;;;16.58;3.55;;;8.20;99.90;;;;;;5054403;28;20202;-88
2021/05/05 02:17:13;;;;;;;10.80;4.22;;;8.10;99.90;;;;;;5052827;28;20217;-88
2021/05/05 02:19:39;;;;;;;12.15;3.53;;;8.00;99.90;;;;;;5054037;28;20183;-89
2021/05/05 02:22:05;;;;;;;18.88;4.35;;;7.70;99.90;;;;;;5054204;28;20183;-89
2021/05/05 02:24:30;;;;;;;14.15;4.22;;;7.50;99.90;;;;;;5054016;28;20183;-89
2021/05/05 02:26:56;;;;;;;18.83;4.47;;;7.40;99.90;;;;;;5053166;28;20168;-89
2021/05/05 02:29:21;;;;;;;15.68;4.25;;;7.40;99.90;;;;;;5052627;28;20179;-89
2021/05/05 02:31:49;;;;;;;12.60;4.07;;;7.40;99.90;;;;;;5048231;28;20176;-89
2021/05/05 02:34:15;;;;;;;17.85;3.95;;;7.30;99.90;;;;;;5037742;28;20297;-89
2021/05/05 02:36:41;;;;;;;18.30;4.78;;;7.20;99.90;;;;;;5053907;28;20229;-89
2021/05/05 02:39:07;;;;;;;14.33;5.10;;;7.20;99.90;;;;;;5054762;28;20202;-90
2021/05/05 02:41:34;;;;;;;11.18;4.50;;;7.20;99.90;;;;;;5052268;28;20559;-89
2021/05/05 02:44:01;;;;;;;10.40;4.13;;;7.20;99.90;;;;;;5053170;28;20167;-89
2021/05/05 02:46:26;;;;;;;22.87;4.90;;;7.20;99.90;;;;;;5052892;28;20643;-90
2021/05/05 02:48:52;;;;;;;15.30;3.87;;;7.10;99.90;;;;;;5086135;28;20171;-89
2021/05/05 02:51:18;;;;;;;26.20;4.70;;;7.10;99.90;;;;;;5053130;28;20183;-88
2021/05/05 02:53:43;;;;;;;15.90;4.53;;;7.10;99.90;;;;;;5086993;28;20198;-89
2021/05/05 02:56:09;;;;;;;12.80;4.37;;;7.10;99.90;;;;;;5054072;28;20171;-90
2021/05/05 02:58:35;;;;;;;20.37;4.77;;;7.10;99.90;;;;;;5086021;28;20186;-89
2021/05/05 03:01:00;;;;;;;20.60;4.70;;;7.20;99.90;;;;;;5085594;28;20310;-89
2021/05/05 03:03:26;;;;;;;17.13;5.00;;;7.30;99.90;;;;;;5052232;28;20220;-89
2021/05/05 03:05:51;;;;;;;11.25;4.82;;;7.20;99.90;;;;;;5052174;28;20694;-89
2021/05/05 03:08:18;;;;;;;21.67;5.77;;;7.00;99.90;;;;;;5053485;28;20171;-89
2021/05/05 03:10:47;;;;;;;20.43;4.63;;;7.00;99.90;;;;;;5053726;28;20198;-89
2021/05/05 03:13:13;;;;;;;18.23;5.10;;;7.00;99.90;;;;;;5057086;28;20176;-89
2021/05/05 03:15:39;;;;;;;20.47;4.53;;;7.00;99.90;;;;;;5073608;28;20187;-88
2021/05/05 03:18:05;;;;;;;23.13;5.37;;;6.90;99.90;;;;;;5106895;28;20209;-89
2021/05/05 03:20:31;;;;;;;17.87;4.90;;;6.90;99.90;;;;;;5078479;28;20168;-88
2021/05/05 03:22:57;;;;;;;18.40;4.50;;;6.90;99.90;;;;;;5114442;28;20166;-88
2021/05/05 03:25:23;;;;;;;10.67;4.20;;;6.90;99.90;;;;;;5042301;28;20209;-88
2021/05/05 03:27:48;;;;;;;15.23;4.50;;;6.90;99.90;;;;;;5047947;28;20179;-89
2021/05/05 03:30:15;;;;;;;13.77;4.27;;;7.10;99.90;;;;;;5070326;28;20514;-88
2021/05/05 03:32:41;;;;;;;17.40;5.00;;;7.10;99.90;;;;;;5068457;28;20195;-88
2021/05/05 03:35:09;;;;;;;13.97;4.10;;;7.20;99.90;;;;;;5062293;28;20199;-89
2021/05/05 03:37:36;;;;;;;20.43;4.40;;;7.20;99.90;;;;;;5059335;28;20282;-88
2021/05/05 03:40:05;;;;;;;20.27;5.10;;;7.20;99.90;;;;;;5080791;28;20231;-89
2021/05/05 03:42:31;;;;;;;11.53;4.43;;;7.00;99.90;;;;;;5058893;28;20179;-88
2021/05/05 03:44:58;;;;;;;23.87;4.50;;;6.90;99.90;;;;;;5078219;28;20623;-89
2021/05/05 03:47:24;;;;;;;15.60;4.63;;;6.80;99.90;;;;;;5039919;28;20175;-88
2021/05/05 03:49:49;;;;;;;14.73;5.13;;;6.70;99.90;;;;;;5056453;28;20201;-88
2021/05/05 03:52:15;;;;;;;12.60;4.57;;;6.70;99.90;;;;;;5056581;28;20178;-90
2021/05/05 03:54:41;;;;;;;15.30;4.40;;;6.70;99.90;;;;;;5072332;28;20210;-89
2021/05/05 03:57:06;;;;;;;21.07;5.20;;;6.90;99.90;;;;;;5036762;28;20184;-89
2021/05/05 03:59:33;;;;;;;16.47;5.00;;;7.10;99.90;;;;;;5036138;28;20180;-89
2021/05/05 04:01:59;;;;;;;9.73;4.10;;;7.20;99.90;;;;;;5043035;28;20175;-89
2021/05/05 04:04:24;;;;;;;16.77;4.93;;;7.10;99.90;;;;;;5056347;28;20182;-89
2021/05/05 04:06:50;;;;;;;13.27;4.20;;;7.10;99.90;;;;;;5055053;28;20176;-89
2021/05/05 04:09:15;;;;;;;9.37;5.00;;;7.10;99.90;;;;;;5052155;28;20541;-88
2021/05/05 04:11:41;;;;;;;7.13;3.80;;;7.00;99.90;;;;;;5052722;28;20180;-89
2021/05/05 04:14:08;;;;;;;15.07;3.77;;;6.90;99.90;;;;;;5054705;28;20203;-89
2021/05/05 04:16:34;;;;;;;9.80;3.60;;;6.80;99.90;;;;;;5054923;28;20226;-89
2021/05/05 04:19:00;;;;;;;11.18;3.45;;;6.70;99.90;;;;;;5055609;28;20723;-89
2021/05/05 04:21:26;;;;;;;12.43;4.27;;;6.80;99.90;;;;;;5054957;28;20207;-88
2021/05/05 04:23:52;;;;;;;8.13;4.03;;;6.90;99.90;;;;;;5054906;28;20270;-88
2021/05/05 04:26:18;;;;;;;11.40;3.75;;;7.00;99.90;;;;;;5044626;28;20227;-88
2021/05/05 04:28:45;;;;;;;10.95;3.47;;;7.10;99.90;;;;;;5055184;28;20299;-89
2021/05/05 04:31:11;;;;;;;14.63;4.10;;;7.20;99.90;;;;;;5035314;28;20172;-89
2021/05/05 04:33:36;;;;;;;9.63;4.23;;;7.30;99.90;;;;;;5046070;28;20302;-88
2021/05/05 04:36:02;;;;;;;9.57;3.40;;;7.40;99.90;;;;;;5054910;28;20640;-89
2021/05/05 04:38:28;;;;;;;6.32;2.97;;;7.50;99.90;;;;;;5056745;28;20250;-89
2021/05/05 04:40:53;;;;;;;11.73;3.65;;;7.60;99.90;;;;;;5071717;28;20547;-89
2021/05/05 04:43:19;;;;;;;10.32;3.50;;;7.60;99.90;;;;;;5054825;28;20183;-89
2021/05/05 04:45:45;;;;;;;10.35;3.28;;;7.60;99.90;;;;;;5054130;28;20179;-88
2021/05/05 04:48:11;;;;;;;14.43;3.17;;;7.70;99.90;;;;;;5068339;28;20163;-88
2021/05/05 04:50:37;;;;;;;9.35;3.28;;;7.80;99.90;;;;;;5112162;28;20160;-89
2021/05/05 04:53:03;;;;;;;9.10;3.75;;;7.80;99.90;;;;;;5112893;28;20193;-90
2021/05/05 04:55:28;;;;;;;11.30;3.50;;;7.80;99.90;;;;;;5078317;28;20274;-90
2021/05/05 04:57:54;;;;;;;12.55;3.90;;;7.80;99.90;;;;;;5078707;28;20170;-88
2021/05/05 05:00:20;;;;;;;10.43;3.40;;;7.70;99.90;;;;;;5080569;28;20182;-90
2021/05/05 05:02:46;;;;;;;10.27;4.38;;;7.60;99.90;;;;;;5072417;28;20202;-89
2021/05/05 05:05:11;;;;;;;14.68;4.35;;;7.70;99.90;;;;;;5054535;28;20632;-88
2021/05/05 05:07:37;;;;;;;5.38;2.92;;;7.70;99.90;;;;;;5055988;28;20177;-88
2021/05/05 05:10:04;;;;;;;10.00;3.57;;;7.70;99.90;;;;;;5089641;28;20195;-90
2021/05/05 05:12:30;;;;;;;12.27;3.60;;;7.70;99.90;;;;;;5057089;28;20202;-89
2021/05/05 05:14:56;;;;;;;6.13;3.60;;;7.70;99.90;;;;;;5083112;28;20271;-89
2021/05/05 05:17:22;;;;;;;16.83;4.05;;;7.80;99.90;;;;;;5072639;28;20186;-88
2021/05/05 05:19:47;;;;;;;5.28;3.22;;;7.80;99.90;;;;;;5072624;28;20174;-88
2021/05/05 05:22:13;;;;;;;9.48;3.25;;;7.70;99.90;;;;;;5072067;28;20239;-89
2021/05/05 05:24:39;;;;;;;11.20;3.95;;;7.70;99.90;;;;;;5073181;28;20219;-88
2021/05/05 05:27:05;;;;;;;5.97;3.83;;;7.70;99.90;;;;;;5093023;28;20211;-90
2021/05/05 05:29:30;;;;;;;17.00;3.53;;;7.80;99.90;;;;;;5056237;28;20267;-90
2021/05/05 05:31:56;;;;;;;12.43;3.70;;;7.70;99.90;;;;;;5071049;28;20179;-89
2021/05/05 05:34:22;;;;;;;8.60;3.55;;;7.90;99.90;;;;;;5055605;28;20212;-89
2021/05/05 05:36:48;;;;;;;3.70;3.13;;;8.10;99.90;;;;;;5055953;28;20187;-88
2021/05/05 05:39:13;;;;;;;7.40;3.50;;;8.50;99.90;;;;;;5055944;28;20190;-90
2021/05/05 05:41:39;;;;;;;6.63;3.17;;;9.40;99.90;;;;;;5055319;28;20639;-90
2021/05/05 05:44:05;;;;;;;6.80;2.85;;;10.70;99.90;;;;;;5054433;28;20180;-91
2021/05/05 05:46:31;;;;;;;3.40;2.00;;;11.10;99.90;;;;;;5059611;28;20191;-91
2021/05/05 05:48:56;;;;;;;6.15;2.25;;;11.20;99.90;;;;;;5071456;28;20167;-90
2021/05/05 05:51:22;;;;;;;7.68;1.80;;;11.00;99.90;;;;;;5078342;28;20201;-90
2021/05/05 05:53:48;;;;;;;5.93;1.77;;;10.80;99.90;;;;;;5074977;28;20195;-89
2021/05/05 05:56:14;;;;;;;8.43;1.70;;;10.70;99.90;;;;;;5069311;28;20544;-90
2021/05/05 05:58:40;;;;;;;2.97;1.83;;;11.20;99.90;;;;;;5038738;28;20175;-89
2021/05/05 06:01:05;;;;;;;2.97;1.80;;;11.60;99.90;;;;;;5054773;28;20266;-87
2021/05/05 06:03:31;;;;;;;2.47;1.73;;;12.70;99.90;;;;;;5055310;28;20183;-89
2021/05/05 06:05:57;;;;;;;5.57;2.03;;;13.70;99.90;;;;;;5059692;28;20191;-92
2021/05/05 06:08:25;;;;;;;2.10;1.63;;;14.30;99.90;;;;;;5097185;28;20178;-89
2021/05/05 06:10:50;;;;;;;7.40;1.75;;;14.60;99.90;;;;;;5089962;28;20704;-90
2021/05/05 06:13:17;;;;;;;3.97;1.70;;;15.20;99.90;;;;;;5072310;28;20209;-90
2021/05/05 06:15:43;;;;;;;2.70;1.65;;;15.60;99.90;;;;;;5057139;28;20187;-91
2021/05/05 06:18:09;;;;;;;6.18;2.55;;;16.20;99.90;;;;;;5057285;28;20179;-90
2021/05/05 06:20:34;;;;;;;2.95;2.15;;;15.30;99.90;;;;;;5054780;28;20647;-90
2021/05/05 06:23:01;;;;;;;6.78;2.28;;;14.80;99.90;;;;;;5055579;28;20174;-86
2021/05/05 06:25:27;;;;;;;6.15;2.05;;;13.80;99.90;;;;;;5069644;28;20651;-88
2021/05/05 06:27:53;;;;;;;7.70;3.47;;;12.50;99.90;;;;;;5063639;28;20224;-87
2021/05/05 06:30:22;;;;;;;3.55;2.30;;;11.60;99.90;;;;;;5039072;28;20185;-87
2021/05/05 06:32:48;;;;;;;11.13;3.10;;;11.30;99.90;;;;;;5053035;28;20198;-89
2021/05/05 06:35:14;;;;;;;6.32;2.58;;;11.20;99.90;;;;;;5054580;28;20202;-89
2021/05/05 06:37:39;;;;;;;10.60;3.75;;;11.30;99.90;;;;;;5056602;28;20184;-89
2021/05/05 06:40:06;;;;;;;11.05;3.30;;;11.30;99.90;;;;;;5043928;28;20655;-88
2021/05/05 06:42:33;;;;;;;11.73;4.05;;;11.20;99.90;;;;;;5053354;28;20217;-89
2021/05/05 06:44:59;;;;;;;8.55;4.35;;;10.90;99.90;;;;;;5063520;28;20186;-88
2021/05/05 06:47:25;;;;;;;6.88;3.80;;;10.60;99.90;;;;;;5062137;28;20544;-89
2021/05/05 06:49:50;;;;;;;11.45;3.42;;;10.20;99.90;;;;;;5054086;28;20183;-90
2021/05/05 06:52:16;;;;;;;16.48;3.03;;;10.00;99.90;;;;;;5073659;28;20635;-92
2021/05/05 06:54:42;;;;;;;3.20;2.22;;;9.50;99.90;;;;;;5065804;28;20695;-92
2021/05/05 06:57:08;;;;;;;4.05;2.08;;;9.00;99.90;;;;;;5054324;28;20175;-92
2021/05/05 06:59:34;;;;;;;1.80;1.58;;;8.60;99.90;;;;;;5051875;28;20176;-93
2021/05/05 07:02:00;;;;;;;6.70;2.10;;;8.10;99.90;;;;;;5033203;28;20546;-91
2021/05/05 07:04:26;;;;;;;4.28;1.83;;;8.00;99.90;;;;;;5034422;28;20180;-91
2021/05/05 07:06:53;;;;;;;2.08;1.73;;;7.90;99.90;;;;;;5053781;28;20178;-91
2021/05/05 07:09:18;;;;;;;1.60;1.50;;;8.00;99.90;;;;;;5063515;28;20184;-92
2021/05/05 07:11:44;;;;;;;2.50;2.00;;;8.10;99.90;;;;;;5049627;28;20176;-91
2021/05/05 07:14:10;;;;;;;2.15;1.75;;;8.20;99.90;;;;;;5049819;28;20218;-91
2021/05/05 07:16:35;;;;;;;3.75;2.00;;;8.30;99.90;;;;;;5049460;28;20172;-91
2021/05/05 07:19:02;;;;;;;5.05;1.80;;;8.50;99.90;;;;;;5067734;28;20191;-90
2021/05/05 07:21:29;;;;;;;3.05;2.00;;;8.60;99.90;;;;;;5053511;28;20183;-91
2021/05/05 07:23:57;;;;;;;4.55;2.72;;;8.70;99.90;;;;;;5053935;28;20179;-92
2021/05/05 07:26:23;;;;;;;4.28;2.10;;;8.80;99.90;;;;;;5077453;28;20242;-91
2021/05/05 07:28:49;;;;;;;6.68;3.15;;;9.00;99.90;;;;;;5049860;28;20423;-91
2021/05/05 07:31:15;;;;;;;4.22;2.95;;;9.30;99.90;;;;;;5053326;28;20176;-91
2021/05/05 07:33:41;;;;;;;4.25;3.65;;;9.50;99.90;;;;;;5052058;28;20266;-91
2021/05/05 07:36:15;;;;;;;5.78;3.58;;;9.70;99.90;;;;;;5053640;28;20176;-92
2021/05/05 07:39:12;;;;;;;9.10;3.15;;;10.90;99.90;;;;;;5053714;28;20269;-91
2021/05/05 07:47:28;;;;;;;7.60;1.98;;;16.60;99.90;;;;;;5032693;28;20185;-92
2021/05/05 07:49:56;;;;;;;3.60;1.98;;;18.10;99.90;;;;;;5032965;28;20164;-90
2021/05/05 07:52:22;;;;;;;2.63;1.75;;;18.90;99.90;;;;;;5033221;28;20271;-91
2021/05/05 07:54:48;;;;;;;4.07;1.88;;;20.10;99.90;;;;;;5032589;28;20200;-92
2021/05/05 07:57:14;;;;;;;5.72;2.05;;;20.40;99.90;;;;;;5034167;28;20652;-90
2021/05/05 07:59:40;;;;;;;7.22;2.20;;;19.30;99.90;;;;;;5056711;28;20171;-90
2021/05/05 08:02:07;;;;;;;7.95;1.90;;;17.70;99.90;;;;;;5057061;28;20167;-89
2021/05/05 08:04:33;;;;;;;7.30;2.60;;;16.30;99.90;;;;;;5056309;28;20814;-92
2021/05/05 08:07:00;;;;;;;5.13;2.05;;;15.10;99.90;;;;;;5055857;28;20172;-90
2021/05/05 08:09:27;;;;;;;3.50;2.22;;;14.20;99.90;;;;;;5054910;28;20257;-90
2021/05/05 08:11:53;;;;;;;7.03;2.72;;;13.60;99.90;;;;;;5056515;28;20266;-91
2021/05/05 08:14:19;;;;;;;3.05;2.15;;;14.20;99.90;;;;;;5056802;28;20218;-91
2021/05/05 08:16:46;;;;;;;3.75;2.25;;;14.30;99.90;;;;;;5072339;28;20178;-92
2021/05/05 08:19:12;;;;;;;8.20;2.13;;;14.90;99.90;;;;;;5078055;28;20160;-91
2021/05/05 08:21:39;;;;;;;4.85;2.15;;;16.10;99.90;;;;;;5082924;28;20167;-91
2021/05/05 08:24:05;;;;;;;9.80;2.33;;;16.80;99.90;;;;;;5054709;28;20168;-90
2021/05/05 08:26:31;;;;;;;10.38;2.80;;;16.40;99.90;;;;;;5055482;28;20182;-92
2021/05/05 08:28:58;;;;;;;7.45;2.25;;;15.80;99.90;;;;;;5050557;28;20168;-91
2021/05/05 08:31:24;;;;;;;5.07;2.58;;;15.80;99.90;;;;;;5055191;28;20190;-91
2021/05/05 08:33:50;;;;;;;8.77;2.78;;;16.60;99.90;;;;;;5064746;28;20204;-91
2021/05/05 08:36:15;;;;;;;7.80;2.08;;;16.70;99.90;;;;;;5055152;28;20182;-92
2021/05/05 08:38:41;;;;;;;8.73;2.30;;;15.80;99.90;;;;;;5066388;28;20184;-92
2021/05/05 08:41:10;;;;;;;10.52;2.50;;;15.00;99.90;;;;;;5054811;28;20628;-93
2021/05/05 08:43:36;;;;;;;7.47;2.97;;;15.10;99.90;;;;;;5052812;28;20191;-91
2021/05/05 08:46:05;;;;;;;13.98;2.67;;;14.20;99.90;;;;;;5050213;28;20517;-91
2021/05/05 08:48:31;;;;;;;9.35;2.40;;;13.50;99.90;;;;;;5054901;28;20258;-92
2021/05/05 08:50:57;;;;;;;12.70;2.17;;;13.10;99.90;;;;;;5055250;28;20190;-91
2021/05/05 08:53:23;;;;;;;10.00;2.42;;;12.80;99.90;;;;;;5056267;28;20247;-91
2021/05/05 08:55:48;;;;;;;7.63;1.85;;;13.20;99.90;;;;;;5038165;28;20176;-92
2021/05/05 08:58:14;;;;;;;6.85;2.03;;;16.30;99.90;;;;;;5055719;28;20254;-88
2021/05/05 09:00:40;;;;;;;4.43;1.75;;;19.80;99.90;;;;;;5056024;28;20263;-91
2021/05/05 09:03:07;;;;;;;10.27;2.03;;;22.20;99.10;;;;;;5054842;28;20175;-90
2021/05/05 09:05:49;;;;;;;7.78;1.98;;;23.20;95.20;;;;;;5054972;28;20171;-89
2021/05/05 09:08:15;;;;;;;8.50;1.77;;;22.40;93.30;;;;;;5055141;28;20528;-89
2021/05/05 09:11:02;;;;;;;3.90;1.75;;;23.40;92.90;;;;;;5054464;28;20171;-88
2021/05/05 09:13:50;;;;;;;4.05;1.80;;;25.20;90.90;;;;;;5054817;28;20179;-88
2021/05/05 09:16:31;;;;;;;5.57;1.60;;;23.10;87.80;;;;;;5055530;28;20195;-88
2021/05/05 09:19:06;;;;;;;7.30;1.90;;;21.10;92.30;;;;;;5051309;28;20190;-88
2021/05/05 09:21:38;;;;;;;4.78;1.70;;;20.20;94.10;;;;;;5041810;28;20172;-89
2021/05/05 09:24:25;;;;;;;4.82;1.50;;;17.70;95.10;;;;;;5053282;28;20275;-90
2021/05/05 09:26:54;;;;;;;3.88;1.83;;;15.30;99.90;;;;;;5053590;28;20175;-89
2021/05/05 09:29:22;;;;;;;3.75;1.90;;;13.70;99.90;;;;;;5054600;28;20179;-89
2021/05/05 09:31:48;;;;;;;8.52;1.98;;;13.10;99.90;;;;;;5042455;28;20179;-91
2021/05/05 09:34:14;;;;;;;6.35;2.75;;;13.00;99.90;;;;;;5041674;28;20569;-91
2021/05/05 09:36:55;;;;;;;7.38;2.00;;;14.70;99.90;;;;;;5054484;28;20172;-90
2021/05/05 09:39:26;;;;;;;4.40;2.30;;;18.30;99.90;;;;;;5053757;28;20175;-90
2021/05/05 09:41:52;;;;;;;11.55;2.40;;;22.10;99.90;;;;;;5053854;28;20228;-90
2021/05/05 09:44:18;;;;;;;6.25;2.25;;;23.20;96.30;;;;;;5053972;28;20266;-90
2021/05/05 09:46:46;;;;;;;4.30;1.58;;;23.90;96.60;;;;;;5060734;28;20273;-90
2021/05/05 09:49:34;;;;;;;8.55;2.30;;;22.50;95.80;;;;;;5052822;28;20628;-90
2021/05/05 09:52:03;;;;;;;7.13;2.35;;;19.40;99.90;;;;;;5053651;28;20167;-91
2021/05/05 09:54:31;;;;;;;7.65;2.15;;;16.40;99.90;;;;;;5053358;28;20207;-90
2021/05/05 09:57:22;;;;;;;8.57;2.08;;;15.10;99.90;;;;;;5053294;28;20236;-91
2021/05/05 10:00:10;;;;;;;6.60;2.25;;;16.70;99.90;;;;;;5053831;28;20228;-91
2021/05/05 10:02:45;;;;;;;8.07;1.90;;;20.90;99.90;;;;;;5053451;28;20175;-91
2021/05/05 10:05:14;;;;;;;6.20;2.00;;;24.20;96.60;;;;;;5052897;28;20225;-89
2021/05/05 10:08:03;;;;;;;4.82;1.70;;;24.70;93.60;;;;;;5050395;28;20180;-89
2021/05/05 10:10:32;;;;;;;5.07;1.85;;;24.00;91.20;;;;;;5045290;28;20570;-90
2021/05/05 10:13:03;;;;;;;3.65;1.60;;;22.30;91.90;;;;;;5052793;28;20595;-91
2021/05/05 10:15:34;;;;;;;6.75;1.67;;;20.90;90.90;;;;;;5053393;28;20203;-91
2021/05/05 10:18:02;;;;;;;3.92;1.77;;;23.00;92.50;;;;;;5036964;28;20178;-91
2021/05/05 10:20:32;;;;;;;3.75;1.88;;;25.40;90.30;;;;;;5053956;28;20225;-90
2021/05/05 10:22:59;;;;;;;4.97;1.88;;;25.60;85.30;;;;;;5054075;28;20176;-91
2021/05/05 10:25:26;;;;;;;6.10;1.80;;;25.60;83.60;;;;;;5052855;28;20182;-91
2021/05/05 10:27:53;;;;;;;3.75;1.83;;;23.00;85.70;;;;;;5036205;28;20233;-91
2021/05/05 10:30:21;;;;;;;5.30;1.90;;;19.00;88.90;;;;;;5052944;28;20270;-91
2021/05/05 10:32:47;;;;;;;3.92;1.70;;;19.10;92.40;;;;;;5052949;28;20183;-89
2021/05/05 10:35:16;;;;;;;3.47;1.42;;;21.30;89.10;;;;;;5053051;28;20199;-90
2021/05/05 10:37:49;;;;;;;6.43;1.60;;;21.70;84.70;;;;;;5052759;28;20544;-89
2021/05/05 10:40:20;;;;;;;5.72;1.40;;;22.70;85.20;;;;;;5053803;28;20170;-89
2021/05/05 10:43:00;;;;;;;4.70;1.85;;;23.10;85.50;;;;;;5066903;28;20171;-91
2021/05/05 10:45:44;;;;;;;4.30;1.60;;;25.60;82.20;;;;;;5076354;28;20155;-88
2021/05/05 10:48:13;;;;;;;3.90;1.52;;;25.20;78.80;;;;;;5075434;28;20226;-90
2021/05/05 10:50:51;;;;;;;6.28;1.60;;;21.80;83.60;;;;;;5052582;28;20193;-90
2021/05/05 10:53:18;;;;;;;4.38;1.48;;;17.60;89.50;;;;;;5055132;28;20183;-90
2021/05/05 10:55:50;;;;;;;4.85;1.88;;;16.00;94.50;;;;;;5054077;28;20245;-89
2021/05/05 10:58:25;;;;;;;3.58;1.80;;;15.30;95.30;;;;;;5052650;28;20259;-88
2021/05/05 11:00:57;;;;;;;8.25;2.15;;;14.90;96.80;;;;;;5067325;28;20167;-91
2021/05/05 11:03:45;;;;;;;3.15;1.60;;;16.60;97.00;;;;;;5075485;28;20215;-91
2021/05/05 11:06:53;;;;;;;2.22;1.45;;;19.80;92.90;;;;;;5059555;28;20172;-91
2021/05/05 11:09:19;;;;;;;6.57;1.67;;;23.30;85.30;;;;;;4996232;28;20569;-89
2021/05/05 11:11:53;;;;;;;2.97;1.35;;;25.50;79.10;;;;;;5047698;28;20190;-91
2021/05/05 11:14:27;;;;;;;4.30;1.73;;;27.30;76.20;;;;;;5053597;28;20256;-90
2021/05/05 11:17:06;;;;;;;6.05;1.80;;;27.30;73.80;;;;;;5052972;28;20185;-90
2021/05/05 11:19:38;;;;;;;4.65;1.75;;;22.90;78.90;;;;;;5046009;28;20559;-90
2021/05/05 11:22:19;;;;;;;3.80;1.50;;;22.90;82.90;;;;;;5053751;28;20628;-89
2021/05/05 11:24:46;;;;;;;5.22;1.73;;;21.60;84.20;;;;;;5053800;28;20197;-90
2021/05/05 11:27:13;;;;;;;6.60;2.05;;;20.40;87.40;;;;;;5053690;28;20199;-90
2021/05/05 11:29:39;;;;;;;6.50;1.90;;;19.60;87.80;;;;;;5052474;28;20183;-89
2021/05/05 11:32:30;;;;;;;3.78;1.33;;;19.40;87.70;;;;;;5052567;28;20178;-90
2021/05/05 11:34:56;;;;;;;4.32;2.17;;;19.70;87.80;;;;;;5050928;28;20520;-89
2021/05/05 11:37:26;;;;;;;4.75;1.30;;;19.40;89.10;;;;;;5057445;28;20225;-90
2021/05/05 11:40:00;;;;;;;3.03;1.60;;;17.90;87.70;;;;;;5055933;28;20163;-89
2021/05/05 11:42:36;;;;;;;4.35;1.80;;;16.60;92.10;;;;;;5056574;28;20220;-90
2021/05/05 11:45:06;;;;;;;4.32;1.60;;;19.10;91.20;;;;;;5056644;28;20244;-88
2021/05/05 11:47:35;;;;;;;3.30;1.50;;;21.90;85.00;;;;;;5057068;28;20159;-89
2021/05/05 11:50:07;;;;;;;2.30;1.42;;;22.80;80.70;;;;;;5058312;28;20171;-88
2021/05/05 11:52:40;;;;;;;2.67;1.20;;;21.80;77.10;;;;;;5057819;28;20241;-88
2021/05/05 11:55:09;;;;;;;1.73;1.30;;;20.90;76.70;;;;;;5040253;28;20226;-89
2021/05/05 11:57:36;;;;;;;3.78;1.50;;;22.40;78.30;;;;;;5061070;28;20167;-89
2021/05/05 12:00:33;;;;;;;3.25;1.48;;;23.30;76.10;;;;;;5060166;28;20171;-88
2021/05/05 12:03:10;;;;;;;6.38;1.20;;;23.50;78.90;;;;;;5056397;28;20194;-90
2021/05/05 12:05:41;;;;;;;4.80;1.55;;;22.50;76.60;;;;;;5075154;28;20176;-89
2021/05/05 12:08:08;;;;;;;6.15;1.67;;;21.70;76.90;;;;;;5059337;28;20171;-88
2021/05/05 12:10:40;;;;;;;3.90;1.50;;;19.60;80.90;;;;;;5073792;28;20186;-90
2021/05/05 12:13:20;;;;;;;2.55;1.48;;;18.70;84.10;;;;;;5069773;28;20174;-90
2021/05/05 12:18:27;;;;;;;3.17;1.17;;;22.80;79.20;;;;;;5056608;28;20206;-89
2021/05/05 12:20:53;;;;;;;3.45;1.48;;;24.20;75.20;;;;;;5069617;28;20175;-88
2021/05/05 12:23:20;;;;;;;2.58;1.17;;;23.60;75.80;;;;;;5056558;28;20168;-88
2021/05/05 12:25:45;;;;;;;6.30;1.45;;;22.30;79.10;;;;;;5038773;28;20203;-88
2021/05/05 12:28:17;;;;;;;3.42;1.33;;;20.90;78.30;;;;;;5058276;28;20164;-89
2021/05/05 12:30:56;;;;;;;3.25;1.88;;;19.50;82.40;;;;;;5056283;28;20202;-89
2021/05/05 12:33:32;;;;;;;2.13;1.30;;;18.80;84.80;;;;;;5057047;28;20227;-88
2021/05/05 12:36:00;;;;;;;4.03;1.63;;;18.30;85.50;;;;;;5057818;28;20183;-89
2021/05/05 12:38:31;;;;;;;5.30;1.73;;;17.40;84.90;;;;;;5055954;28;20167;-90
2021/05/05 12:41:03;;;;;;;10.02;1.60;;;17.00;86.60;;;;;;5040176;28;20174;-89
2021/05/05 12:43:30;;;;;;;4.00;1.42;;;16.80;86.10;;;;;;5056374;28;20182;-90
2021/05/05 12:45:57;;;;;;;1.65;1.20;;;16.50;86.50;;;;;;5057394;28;20528;-88
2021/05/05 12:48:28;;;;;;;3.80;1.83;;;16.60;88.70;;;;;;5057271;28;20187;-89
2021/05/05 12:51:03;;;;;;;2.88;1.50;;;17.10;88.80;;;;;;5057082;28;20167;-88
2021/05/05 12:53:48;;;;;;;4.57;1.40;;;16.90;88.40;;;;;;5055900;28;20174;-89
2021/05/05 12:56:14;;;;;;;4.28;1.40;;;16.60;88.00;;;;;;5056229;28;20171;-90
2021/05/05 12:58:42;;;;;;;6.65;1.55;;;16.40;89.40;;;;;;5056066;28;20179;-88
2021/05/05 13:01:10;;;;;;;2.97;1.30;;;16.00;89.00;;;;;;5057018;28;20175;-88
2021/05/05 13:03:40;;;;;;;3.78;1.33;;;16.20;90.60;;;;;;5057072;28;20200;-89